sensor_id;sensor_type;location;lat;lon;timestamp;P1;durP1;ratioP1;P2;durP2;ratioP2
25922;SDS011;13725;51.170;4.442;2022-09-28T00:01:51;16.73;;;9.30;;
25922;SDS011;13725;51.170;4.442;2022-09-28T00:04:17;17.52;;;7.97;;
25922;SDS011;13725;51.170;4.442;2022-09-28T00:06:44;18.30;;;9.10;;
25922;SDS011;13725;51.170;4.442;2022-09-28T00:09:11;17.10;;;9.48;;
25922;SDS011;13725;51.170;4.442;2022-09-28T00:11:38;19.73;;;9.55;;
25922;SDS011;13725;51.170;4.442;2022-09-28T00:14:05;13.02;;;7.78;;
25922;SDS011;13725;51.170;4.442;2022-09-28T00:16:33;12.80;;;6.88;;
25922;SDS011;13725;51.170;4.442;2022-09-28T00:19:01;12.70;;;6.90;;
25922;SDS011;13725;51.170;4.442;2022-09-28T00:21:28;13.77;;;7.10;;
25922;SDS011;13725;51.170;4.442;2022-09-28T00:23:57;12.75;;;6.97;;
25922;SDS011;13725;51.170;4.442;2022-09-28T00:26:37;16.48;;;6.35;;
25922;SDS011;13725;51.170;4.442;2022-09-28T00:29:06;14.93;;;6.32;;
25922;SDS011;13725;51.170;4.442;2022-09-28T00:31:37;12.02;;;6.10;;
25922;SDS011;13725;51.170;4.442;2022-09-28T00:34:03;10.70;;;5.47;;
25922;SDS011;13725;51.170;4.442;2022-09-28T00:36:30;12.45;;;5.38;;
25922;SDS011;13725;51.170;4.442;2022-09-28T00:38:57;12.75;;;5.00;;
25922;SDS011;13725;51.170;4.442;2022-09-28T00:41:24;13.45;;;5.60;;
25922;SDS011;13725;51.170;4.442;2022-09-28T00:43:52;10.75;;;5.10;;
25922;SDS011;13725;51.170;4.442;2022-09-28T00:46:20;11.20;;;5.43;;
25922;SDS011;13725;51.170;4.442;2022-09-28T00:48:57;14.57;;;5.50;;
25922;SDS011;13725;51.170;4.442;2022-09-28T00:51:27;12.52;;;6.18;;
25922;SDS011;13725;51.170;4.442;2022-09-28T00:53:56;11.02;;;5.72;;
25922;SDS011;13725;51.170;4.442;2022-09-28T00:56:26;16.85;;;6.10;;
25922;SDS011;13725;51.170;4.442;2022-09-28T00:58:54;15.35;;;6.18;;
25922;SDS011;13725;51.170;4.442;2022-09-28T01:01:21;15.85;;;6.47;;
25922;SDS011;13725;51.170;4.442;2022-09-28T01:03:47;20.92;;;6.85;;
25922;SDS011;13725;51.170;4.442;2022-09-28T01:06:17;19.02;;;8.23;;
25922;SDS011;13725;51.170;4.442;2022-09-28T01:08:44;18.27;;;7.75;;
25922;SDS011;13725;51.170;4.442;2022-09-28T01:11:12;13.55;;;7.47;;
25922;SDS011;13725;51.170;4.442;2022-09-28T01:13:38;13.18;;;6.75;;
25922;SDS011;13725;51.170;4.442;2022-09-28T01:16:28;14.80;;;7.47;;
25922;SDS011;13725;51.170;4.442;2022-09-28T01:22:06;18.23;;;7.50;;
25922;SDS011;13725;51.170;4.442;2022-09-28T01:24:45;19.10;;;7.35;;
25922;SDS011;13725;51.170;4.442;2022-09-28T01:27:24;13.75;;;7.68;;
25922;SDS011;13725;51.170;4.442;2022-09-28T01:40:17;23.75;;;7.82;;
25922;SDS011;13725;51.170;4.442;2022-09-28T01:42:46;15.90;;;7.50;;
25922;SDS011;13725;51.170;4.442;2022-09-28T01:45:17;21.02;;;8.07;;
25922;SDS011;13725;51.170;4.442;2022-09-28T01:47:49;21.30;;;8.50;;
25922;SDS011;13725;51.170;4.442;2022-09-28T01:50:19;21.95;;;8.77;;
25922;SDS011;13725;51.170;4.442;2022-09-28T01:52:49;20.83;;;8.98;;
25922;SDS011;13725;51.170;4.442;2022-09-28T01:55:33;23.45;;;9.60;;
25922;SDS011;13725;51.170;4.442;2022-09-28T01:58:15;22.30;;;9.10;;
25922;SDS011;13725;51.170;4.442;2022-09-28T02:00:47;26.25;;;8.88;;
25922;SDS011;13725;51.170;4.442;2022-09-28T02:03:18;19.23;;;9.10;;
25922;SDS011;13725;51.170;4.442;2022-09-28T02:05:58;23.98;;;9.43;;
25922;SDS011;13725;51.170;4.442;2022-09-28T02:08:34;24.23;;;10.23;;
25922;SDS011;13725;51.170;4.442;2022-09-28T02:11:05;23.60;;;10.30;;
25922;SDS011;13725;51.170;4.442;2022-09-28T02:13:42;19.75;;;10.10;;
25922;SDS011;13725;51.170;4.442;2022-09-28T02:16:47;23.27;;;9.90;;
25922;SDS011;13725;51.170;4.442;2022-09-28T02:19:12;24.15;;;10.80;;
25922;SDS011;13725;51.170;4.442;2022-09-28T02:24:58;25.77;;;10.32;;
25922;SDS011;13725;51.170;4.442;2022-09-28T02:30:06;23.95;;;10.85;;
25922;SDS011;13725;51.170;4.442;2022-09-28T02:32:34;20.30;;;10.68;;
25922;SDS011;13725;51.170;4.442;2022-09-28T02:35:06;25.95;;;10.88;;
25922;SDS011;13725;51.170;4.442;2022-09-28T02:37:35;23.17;;;11.60;;
25922;SDS011;13725;51.170;4.442;2022-09-28T02:40:01;25.75;;;11.65;;
25922;SDS011;13725;51.170;4.442;2022-09-28T02:42:33;26.17;;;11.48;;
25922;SDS011;13725;51.170;4.442;2022-09-28T02:45:12;33.38;;;12.05;;
25922;SDS011;13725;51.170;4.442;2022-09-28T02:53:20;23.10;;;10.73;;
25922;SDS011;13725;51.170;4.442;2022-09-28T02:59:12;22.52;;;10.55;;
25922;SDS011;13725;51.170;4.442;2022-09-28T03:09:55;19.63;;;8.98;;
25922;SDS011;13725;51.170;4.442;2022-09-28T03:12:27;19.33;;;9.15;;
25922;SDS011;13725;51.170;4.442;2022-09-28T03:15:07;16.83;;;9.32;;
25922;SDS011;13725;51.170;4.442;2022-09-28T03:17:38;18.55;;;8.80;;
25922;SDS011;13725;51.170;4.442;2022-09-28T03:20:04;21.70;;;8.13;;
25922;SDS011;13725;51.170;4.442;2022-09-28T03:22:30;17.92;;;7.63;;
25922;SDS011;13725;51.170;4.442;2022-09-28T03:24:56;18.67;;;8.00;;
25922;SDS011;13725;51.170;4.442;2022-09-28T03:27:22;19.98;;;9.35;;
25922;SDS011;13725;51.170;4.442;2022-09-28T03:29:48;17.10;;;7.25;;
25922;SDS011;13725;51.170;4.442;2022-09-28T03:32:14;15.52;;;8.88;;
25922;SDS011;13725;51.170;4.442;2022-09-28T03:34:41;15.88;;;8.43;;
25922;SDS011;13725;51.170;4.442;2022-09-28T03:37:07;14.48;;;8.15;;
25922;SDS011;13725;51.170;4.442;2022-09-28T03:39:32;19.80;;;8.07;;
25922;SDS011;13725;51.170;4.442;2022-09-28T03:42:01;18.05;;;8.73;;
25922;SDS011;13725;51.170;4.442;2022-09-28T03:44:29;18.00;;;8.98;;
25922;SDS011;13725;51.170;4.442;2022-09-28T03:46:55;16.40;;;8.48;;
25922;SDS011;13725;51.170;4.442;2022-09-28T03:49:21;19.73;;;9.23;;
25922;SDS011;13725;51.170;4.442;2022-09-28T03:51:49;21.88;;;10.02;;
25922;SDS011;13725;51.170;4.442;2022-09-28T03:54:15;19.70;;;9.85;;
25922;SDS011;13725;51.170;4.442;2022-09-28T03:56:42;20.95;;;8.95;;
25922;SDS011;13725;51.170;4.442;2022-09-28T03:59:07;23.17;;;10.35;;
25922;SDS011;13725;51.170;4.442;2022-09-28T04:01:35;20.75;;;10.30;;
25922;SDS011;13725;51.170;4.442;2022-09-28T04:04:01;23.13;;;11.15;;
25922;SDS011;13725;51.170;4.442;2022-09-28T04:06:28;20.40;;;10.20;;
25922;SDS011;13725;51.170;4.442;2022-09-28T04:08:54;28.35;;;12.05;;
25922;SDS011;13725;51.170;4.442;2022-09-28T04:11:20;21.98;;;11.40;;
25922;SDS011;13725;51.170;4.442;2022-09-28T04:13:48;23.70;;;11.07;;
25922;SDS011;13725;51.170;4.442;2022-09-28T04:16:14;22.98;;;10.48;;
25922;SDS011;13725;51.170;4.442;2022-09-28T04:18:47;27.65;;;11.93;;
25922;SDS011;13725;51.170;4.442;2022-09-28T04:21:31;34.42;;;12.55;;
25922;SDS011;13725;51.170;4.442;2022-09-28T04:24:08;21.98;;;11.23;;
25922;SDS011;13725;51.170;4.442;2022-09-28T04:26:35;22.98;;;11.77;;
25922;SDS011;13725;51.170;4.442;2022-09-28T04:29:01;29.17;;;12.45;;
25922;SDS011;13725;51.170;4.442;2022-09-28T04:31:52;24.42;;;12.68;;
25922;SDS011;13725;51.170;4.442;2022-09-28T04:34:25;27.52;;;13.20;;
25922;SDS011;13725;51.170;4.442;2022-09-28T04:36:51;32.35;;;12.88;;
25922;SDS011;13725;51.170;4.442;2022-09-28T04:39:17;22.45;;;11.98;;
25922;SDS011;13725;51.170;4.442;2022-09-28T04:41:50;25.67;;;11.43;;
25922;SDS011;13725;51.170;4.442;2022-09-28T04:44:16;22.55;;;10.95;;
25922;SDS011;13725;51.170;4.442;2022-09-28T04:46:44;24.95;;;10.98;;
25922;SDS011;13725;51.170;4.442;2022-09-28T04:49:34;28.75;;;11.35;;
25922;SDS011;13725;51.170;4.442;2022-09-28T04:52:05;25.08;;;11.77;;
25922;SDS011;13725;51.170;4.442;2022-09-28T04:54:32;28.95;;;11.18;;
25922;SDS011;13725;51.170;4.442;2022-09-28T04:56:58;22.50;;;11.52;;
25922;SDS011;13725;51.170;4.442;2022-09-28T04:59:25;24.23;;;10.65;;
25922;SDS011;13725;51.170;4.442;2022-09-28T05:01:51;24.13;;;10.38;;
25922;SDS011;13725;51.170;4.442;2022-09-28T05:04:21;25.02;;;10.82;;
25922;SDS011;13725;51.170;4.442;2022-09-28T05:06:56;29.95;;;11.70;;
25922;SDS011;13725;51.170;4.442;2022-09-28T05:09:22;25.25;;;10.68;;
25922;SDS011;13725;51.170;4.442;2022-09-28T05:11:50;22.27;;;10.35;;
25922;SDS011;13725;51.170;4.442;2022-09-28T05:14:18;28.92;;;10.68;;
25922;SDS011;13725;51.170;4.442;2022-09-28T05:16:46;21.52;;;10.35;;
25922;SDS011;13725;51.170;4.442;2022-09-28T05:19:35;32.97;;;11.35;;
25922;SDS011;13725;51.170;4.442;2022-09-28T05:22:02;30.58;;;10.75;;
25922;SDS011;13725;51.170;4.442;2022-09-28T05:24:35;21.90;;;10.55;;
25922;SDS011;13725;51.170;4.442;2022-09-28T05:27:01;24.98;;;11.13;;
25922;SDS011;13725;51.170;4.442;2022-09-28T05:29:28;26.63;;;10.93;;
25922;SDS011;13725;51.170;4.442;2022-09-28T05:32:12;24.98;;;11.65;;
25922;SDS011;13725;51.170;4.442;2022-09-28T05:34:55;28.00;;;11.40;;
25922;SDS011;13725;51.170;4.442;2022-09-28T05:37:26;26.55;;;12.50;;
25922;SDS011;13725;51.170;4.442;2022-09-28T05:39:52;30.20;;;11.40;;
25922;SDS011;13725;51.170;4.442;2022-09-28T05:42:18;24.35;;;12.05;;
25922;SDS011;13725;51.170;4.442;2022-09-28T05:44:44;21.17;;;11.38;;
25922;SDS011;13725;51.170;4.442;2022-09-28T05:47:10;28.30;;;12.60;;
25922;SDS011;13725;51.170;4.442;2022-09-28T05:49:37;35.65;;;13.32;;
25922;SDS011;13725;51.170;4.442;2022-09-28T05:52:03;33.95;;;13.98;;
25922;SDS011;13725;51.170;4.442;2022-09-28T05:54:31;36.67;;;15.68;;
25922;SDS011;13725;51.170;4.442;2022-09-28T05:56:56;38.65;;;17.60;;
25922;SDS011;13725;51.170;4.442;2022-09-28T05:59:22;36.78;;;18.25;;
25922;SDS011;13725;51.170;4.442;2022-09-28T06:01:48;36.15;;;18.23;;
25922;SDS011;13725;51.170;4.442;2022-09-28T06:04:14;35.40;;;18.80;;
25922;SDS011;13725;51.170;4.442;2022-09-28T06:06:41;36.53;;;17.90;;
25922;SDS011;13725;51.170;4.442;2022-09-28T06:09:08;30.70;;;17.33;;
25922;SDS011;13725;51.170;4.442;2022-09-28T06:12:03;31.67;;;16.80;;
25922;SDS011;13725;51.170;4.442;2022-09-28T06:14:38;26.00;;;14.25;;
25922;SDS011;13725;51.170;4.442;2022-09-28T06:17:04;28.92;;;14.02;;
25922;SDS011;13725;51.170;4.442;2022-09-28T06:19:30;24.63;;;12.43;;
25922;SDS011;13725;51.170;4.442;2022-09-28T06:22:04;25.05;;;13.02;;
25922;SDS011;13725;51.170;4.442;2022-09-28T06:24:34;22.40;;;10.23;;
25922;SDS011;13725;51.170;4.442;2022-09-28T06:27:00;15.00;;;8.82;;
25922;SDS011;13725;51.170;4.442;2022-09-28T06:29:26;28.20;;;8.50;;
25922;SDS011;13725;51.170;4.442;2022-09-28T06:31:52;10.98;;;6.65;;
25922;SDS011;13725;51.170;4.442;2022-09-28T06:34:18;11.57;;;6.10;;
25922;SDS011;13725;51.170;4.442;2022-09-28T06:36:45;13.43;;;6.40;;
25922;SDS011;13725;51.170;4.442;2022-09-28T06:39:12;8.82;;;5.45;;
25922;SDS011;13725;51.170;4.442;2022-09-28T06:41:39;6.60;;;4.60;;
25922;SDS011;13725;51.170;4.442;2022-09-28T06:44:15;6.22;;;4.30;;
25922;SDS011;13725;51.170;4.442;2022-09-28T06:46:59;9.20;;;4.07;;
25922;SDS011;13725;51.170;4.442;2022-09-28T06:49:41;6.32;;;3.67;;
25922;SDS011;13725;51.170;4.442;2022-09-28T06:52:16;5.88;;;3.67;;
25922;SDS011;13725;51.170;4.442;2022-09-28T06:55:02;6.20;;;3.83;;
25922;SDS011;13725;51.170;4.442;2022-09-28T06:57:37;3.70;;;3.33;;
25922;SDS011;13725;51.170;4.442;2022-09-28T07:00:03;6.45;;;3.35;;
25922;SDS011;13725;51.170;4.442;2022-09-28T07:02:30;7.80;;;3.42;;
25922;SDS011;13725;51.170;4.442;2022-09-28T07:05:25;9.63;;;3.50;;
25922;SDS011;13725;51.170;4.442;2022-09-28T07:08:14;3.85;;;2.90;;
25922;SDS011;13725;51.170;4.442;2022-09-28T07:10:54;8.75;;;4.47;;
25922;SDS011;13725;51.170;4.442;2022-09-28T07:13:26;6.60;;;3.63;;
25922;SDS011;13725;51.170;4.442;2022-09-28T07:16:01;4.50;;;3.78;;
25922;SDS011;13725;51.170;4.442;2022-09-28T07:18:27;14.43;;;4.55;;
25922;SDS011;13725;51.170;4.442;2022-09-28T07:20:56;9.90;;;4.60;;
25922;SDS011;13725;51.170;4.442;2022-09-28T07:23:23;9.73;;;4.55;;
25922;SDS011;13725;51.170;4.442;2022-09-28T07:26:13;8.18;;;4.88;;
25922;SDS011;13725;51.170;4.442;2022-09-28T07:28:59;10.52;;;5.03;;
25922;SDS011;13725;51.170;4.442;2022-09-28T07:31:30;11.68;;;5.72;;
25922;SDS011;13725;51.170;4.442;2022-09-28T07:34:12;8.23;;;5.18;;
25922;SDS011;13725;51.170;4.442;2022-09-28T07:36:54;9.68;;;5.00;;
25922;SDS011;13725;51.170;4.442;2022-09-28T07:39:23;10.38;;;5.28;;
25922;SDS011;13725;51.170;4.442;2022-09-28T07:41:48;7.60;;;4.60;;
25922;SDS011;13725;51.170;4.442;2022-09-28T07:44:14;6.30;;;3.90;;
25922;SDS011;13725;51.170;4.442;2022-09-28T07:46:42;6.10;;;3.78;;
25922;SDS011;13725;51.170;4.442;2022-09-28T07:49:17;5.78;;;3.03;;
25922;SDS011;13725;51.170;4.442;2022-09-28T07:52:06;6.97;;;3.97;;
25922;SDS011;13725;51.170;4.442;2022-09-28T07:54:56;3.50;;;2.53;;
25922;SDS011;13725;51.170;4.442;2022-09-28T07:57:41;4.53;;;2.60;;
25922;SDS011;13725;51.170;4.442;2022-09-28T08:00:19;3.67;;;2.15;;
25922;SDS011;13725;51.170;4.442;2022-09-28T08:02:46;5.93;;;2.65;;
25922;SDS011;13725;51.170;4.442;2022-09-28T08:05:16;6.32;;;3.42;;
25922;SDS011;13725;51.170;4.442;2022-09-28T08:07:43;3.38;;;2.80;;
25922;SDS011;13725;51.170;4.442;2022-09-28T08:10:09;6.00;;;3.40;;
25922;SDS011;13725;51.170;4.442;2022-09-28T08:12:54;6.78;;;3.15;;
25922;SDS011;13725;51.170;4.442;2022-09-28T08:15:32;8.63;;;3.03;;
25922;SDS011;13725;51.170;4.442;2022-09-28T08:18:10;4.90;;;3.05;;
25922;SDS011;13725;51.170;4.442;2022-09-28T08:20:36;6.45;;;3.47;;
25922;SDS011;13725;51.170;4.442;2022-09-28T08:23:28;12.52;;;3.63;;
25922;SDS011;13725;51.170;4.442;2022-09-28T08:25:54;5.05;;;2.80;;
25922;SDS011;13725;51.170;4.442;2022-09-28T08:28:21;12.43;;;3.55;;
25922;SDS011;13725;51.170;4.442;2022-09-28T08:30:50;4.68;;;2.90;;
25922;SDS011;13725;51.170;4.442;2022-09-28T08:33:24;3.85;;;2.45;;
25922;SDS011;13725;51.170;4.442;2022-09-28T08:36:09;7.97;;;2.70;;
25922;SDS011;13725;51.170;4.442;2022-09-28T08:38:53;3.67;;;2.28;;
25922;SDS011;13725;51.170;4.442;2022-09-28T08:45:17;6.07;;;2.40;;
25922;SDS011;13725;51.170;4.442;2022-09-28T08:48:19;5.90;;;2.13;;
25922;SDS011;13725;51.170;4.442;2022-09-28T08:51:59;3.35;;;2.17;;
25922;SDS011;13725;51.170;4.442;2022-09-28T08:54:39;3.53;;;1.90;;
25922;SDS011;13725;51.170;4.442;2022-09-28T08:57:37;4.00;;;2.15;;
25922;SDS011;13725;51.170;4.442;2022-09-28T09:00:18;5.93;;;2.20;;
25922;SDS011;13725;51.170;4.442;2022-09-28T09:02:46;4.15;;;1.98;;
25922;SDS011;13725;51.170;4.442;2022-09-28T09:05:18;5.20;;;1.90;;
25922;SDS011;13725;51.170;4.442;2022-09-28T09:25:25;3.03;;;1.02;;
25922;SDS011;13725;51.170;4.442;2022-09-28T09:37:01;3.63;;;1.30;;
25922;SDS011;13725;51.170;4.442;2022-09-28T09:40:14;3.55;;;1.30;;
25922;SDS011;13725;51.170;4.442;2022-09-28T09:43:19;5.32;;;1.50;;
25922;SDS011;13725;51.170;4.442;2022-09-28T09:49:27;3.88;;;1.02;;
25922;SDS011;13725;51.170;4.442;2022-09-28T09:58:06;2.40;;;1.20;;
25922;SDS011;13725;51.170;4.442;2022-09-28T10:00:41;2.63;;;1.35;;
25922;SDS011;13725;51.170;4.442;2022-09-28T10:03:26;2.97;;;1.30;;
25922;SDS011;13725;51.170;4.442;2022-09-28T10:06:05;3.05;;;1.27;;
25922;SDS011;13725;51.170;4.442;2022-09-28T10:08:39;3.92;;;1.77;;
25922;SDS011;13725;51.170;4.442;2022-09-28T10:11:11;6.68;;;1.50;;
25922;SDS011;13725;51.170;4.442;2022-09-28T10:13:48;5.07;;;1.60;;
25922;SDS011;13725;51.170;4.442;2022-09-28T10:16:32;2.50;;;1.15;;
25922;SDS011;13725;51.170;4.442;2022-09-28T10:19:01;3.90;;;2.03;;
25922;SDS011;13725;51.170;4.442;2022-09-28T10:21:46;4.78;;;1.80;;
25922;SDS011;13725;51.170;4.442;2022-09-28T10:24:27;3.30;;;1.90;;
25922;SDS011;13725;51.170;4.442;2022-09-28T10:26:54;5.65;;;1.98;;
25922;SDS011;13725;51.170;4.442;2022-09-28T10:29:24;5.13;;;2.17;;
25922;SDS011;13725;51.170;4.442;2022-09-28T10:31:54;4.57;;;1.60;;
25922;SDS011;13725;51.170;4.442;2022-09-28T10:34:40;7.85;;;2.60;;
25922;SDS011;13725;51.170;4.442;2022-09-28T10:37:12;5.60;;;2.10;;
25922;SDS011;13725;51.170;4.442;2022-09-28T10:40:02;2.97;;;1.50;;
25922;SDS011;13725;51.170;4.442;2022-09-28T10:42:32;3.22;;;1.65;;
25922;SDS011;13725;51.170;4.442;2022-09-28T10:45:23;5.00;;;1.58;;
25922;SDS011;13725;51.170;4.442;2022-09-28T10:47:48;3.30;;;1.67;;
25922;SDS011;13725;51.170;4.442;2022-09-28T10:50:19;6.35;;;2.03;;
25922;SDS011;13725;51.170;4.442;2022-09-28T10:52:50;5.00;;;2.03;;
25922;SDS011;13725;51.170;4.442;2022-09-28T10:55:36;5.07;;;2.75;;
25922;SDS011;13725;51.170;4.442;2022-09-28T10:58:24;7.43;;;3.55;;
25922;SDS011;13725;51.170;4.442;2022-09-28T11:00:56;8.00;;;3.25;;
25922;SDS011;13725;51.170;4.442;2022-09-28T11:03:30;5.05;;;2.83;;
25922;SDS011;13725;51.170;4.442;2022-09-28T11:06:06;4.53;;;3.00;;
25922;SDS011;13725;51.170;4.442;2022-09-28T11:08:44;7.20;;;3.25;;
25922;SDS011;13725;51.170;4.442;2022-09-28T11:11:17;7.35;;;2.60;;
25922;SDS011;13725;51.170;4.442;2022-09-28T11:13:53;8.02;;;2.38;;
25922;SDS011;13725;51.170;4.442;2022-09-28T11:18:54;5.78;;;1.60;;
25922;SDS011;13725;51.170;4.442;2022-09-28T11:21:21;3.40;;;1.50;;
25922;SDS011;13725;51.170;4.442;2022-09-28T11:24:04;2.08;;;1.60;;
25922;SDS011;13725;51.170;4.442;2022-09-28T11:26:42;4.03;;;1.35;;
25922;SDS011;13725;51.170;4.442;2022-09-28T11:32:43;3.65;;;1.30;;
25922;SDS011;13725;51.170;4.442;2022-09-28T11:35:27;4.20;;;1.42;;
25922;SDS011;13725;51.170;4.442;2022-09-28T11:41:08;5.43;;;1.73;;
25922;SDS011;13725;51.170;4.442;2022-09-28T11:52:23;1.70;;;1.60;;
25922;SDS011;13725;51.170;4.442;2022-09-28T11:57:53;3.00;;;2.28;;
25922;SDS011;13725;51.170;4.442;2022-09-28T12:00:26;4.47;;;2.63;;
25922;SDS011;13725;51.170;4.442;2022-09-28T12:03:03;3.67;;;2.88;;
25922;SDS011;13725;51.170;4.442;2022-09-28T12:05:47;4.07;;;2.63;;
25922;SDS011;13725;51.170;4.442;2022-09-28T12:08:25;6.78;;;3.00;;
25922;SDS011;13725;51.170;4.442;2022-09-28T12:11:17;4.72;;;2.53;;
25922;SDS011;13725;51.170;4.442;2022-09-28T12:14:11;4.18;;;2.15;;
25922;SDS011;13725;51.170;4.442;2022-09-28T12:17:44;3.97;;;2.17;;
25922;SDS011;13725;51.170;4.442;2022-09-28T12:22:53;5.15;;;1.60;;
25922;SDS011;13725;51.170;4.442;2022-09-28T12:25:41;6.15;;;2.00;;
25922;SDS011;13725;51.170;4.442;2022-09-28T12:28:44;5.32;;;1.92;;
25922;SDS011;13725;51.170;4.442;2022-09-28T12:33:47;4.07;;;1.70;;
25922;SDS011;13725;51.170;4.442;2022-09-28T12:36:37;5.03;;;2.30;;
25922;SDS011;13725;51.170;4.442;2022-09-28T12:39:09;5.88;;;2.45;;
25922;SDS011;13725;51.170;4.442;2022-09-28T12:56:04;2.75;;;1.00;;
25922;SDS011;13725;51.170;4.442;2022-09-28T12:58:59;3.58;;;0.80;;
25922;SDS011;13725;51.170;4.442;2022-09-28T13:07:36;0.70;;;0.60;;
25922;SDS011;13725;51.170;4.442;2022-09-28T13:17:29;4.95;;;0.77;;
25922;SDS011;13725;51.170;4.442;2022-09-28T13:25:31;3.30;;;0.68;;
25922;SDS011;13725;51.170;4.442;2022-09-28T13:28:01;1.23;;;0.40;;
25922;SDS011;13725;51.170;4.442;2022-09-28T13:30:29;0.45;;;0.30;;
25922;SDS011;13725;51.170;4.442;2022-09-28T13:32:58;1.63;;;0.80;;
25922;SDS011;13725;51.170;4.442;2022-09-28T13:35:27;4.55;;;1.05;;
25922;SDS011;13725;51.170;4.442;2022-09-28T13:43:33;4.22;;;0.50;;
25922;SDS011;13725;51.170;4.442;2022-09-28T13:46:36;1.77;;;0.50;;
25922;SDS011;13725;51.170;4.442;2022-09-28T13:54:48;1.95;;;0.57;;
25922;SDS011;13725;51.170;4.442;2022-09-28T13:57:34;1.85;;;0.70;;
25922;SDS011;13725;51.170;4.442;2022-09-28T14:00:32;2.47;;;0.63;;
25922;SDS011;13725;51.170;4.442;2022-09-28T14:16:27;2.28;;;0.55;;
25922;SDS011;13725;51.170;4.442;2022-09-28T14:18:59;0.93;;;0.60;;
25922;SDS011;13725;51.170;4.442;2022-09-28T14:29:41;4.65;;;0.82;;
25922;SDS011;13725;51.170;4.442;2022-09-28T14:37:27;1.30;;;0.50;;
25922;SDS011;13725;51.170;4.442;2022-09-28T14:40:16;1.67;;;0.70;;
25922;SDS011;13725;51.170;4.442;2022-09-28T14:45:48;1.60;;;0.60;;
25922;SDS011;13725;51.170;4.442;2022-09-28T14:48:19;3.42;;;0.88;;
25922;SDS011;13725;51.170;4.442;2022-09-28T14:50:46;1.48;;;0.40;;
25922;SDS011;13725;51.170;4.442;2022-09-28T14:53:17;2.72;;;0.75;;
25922;SDS011;13725;51.170;4.442;2022-09-28T14:55:47;3.65;;;0.60;;
25922;SDS011;13725;51.170;4.442;2022-09-28T14:58:22;2.45;;;0.85;;
25922;SDS011;13725;51.170;4.442;2022-09-28T15:00:55;1.70;;;0.68;;
25922;SDS011;13725;51.170;4.442;2022-09-28T15:03:25;1.52;;;0.63;;
25922;SDS011;13725;51.170;4.442;2022-09-28T15:05:52;9.60;;;0.80;;
25922;SDS011;13725;51.170;4.442;2022-09-28T15:08:20;2.03;;;0.40;;
25922;SDS011;13725;51.170;4.442;2022-09-28T15:10:49;2.40;;;0.80;;
25922;SDS011;13725;51.170;4.442;2022-09-28T15:13:23;2.55;;;0.85;;
25922;SDS011;13725;51.170;4.442;2022-09-28T15:15:53;2.78;;;0.50;;
25922;SDS011;13725;51.170;4.442;2022-09-28T15:18:30;1.25;;;0.60;;
25922;SDS011;13725;51.170;4.442;2022-09-28T15:21:08;0.38;;;0.25;;
25922;SDS011;13725;51.170;4.442;2022-09-28T15:23:37;3.42;;;0.80;;
25922;SDS011;13725;51.170;4.442;2022-09-28T15:26:19;2.47;;;0.77;;
25922;SDS011;13725;51.170;4.442;2022-09-28T15:28:47;1.75;;;0.40;;
25922;SDS011;13725;51.170;4.442;2022-09-28T15:31:17;3.22;;;0.65;;
25922;SDS011;13725;51.170;4.442;2022-09-28T15:33:46;2.80;;;0.93;;
25922;SDS011;13725;51.170;4.442;2022-09-28T15:36:34;1.35;;;0.65;;
25922;SDS011;13725;51.170;4.442;2022-09-28T15:39:04;3.30;;;1.23;;
25922;SDS011;13725;51.170;4.442;2022-09-28T15:41:36;1.80;;;0.77;;
25922;SDS011;13725;51.170;4.442;2022-09-28T15:44:05;1.75;;;1.00;;
25922;SDS011;13725;51.170;4.442;2022-09-28T15:46:39;3.42;;;1.10;;
25922;SDS011;13725;51.170;4.442;2022-09-28T15:49:19;3.05;;;1.10;;
25922;SDS011;13725;51.170;4.442;2022-09-28T15:51:48;2.50;;;0.98;;
25922;SDS011;13725;51.170;4.442;2022-09-28T15:54:24;2.80;;;1.10;;
25922;SDS011;13725;51.170;4.442;2022-09-28T15:56:57;5.00;;;0.90;;
25922;SDS011;13725;51.170;4.442;2022-09-28T16:04:46;3.40;;;0.90;;
25922;SDS011;13725;51.170;4.442;2022-09-28T16:12:22;4.68;;;1.40;;
25922;SDS011;13725;51.170;4.442;2022-09-28T16:14:50;3.65;;;0.93;;
25922;SDS011;13725;51.170;4.442;2022-09-28T16:17:18;3.25;;;1.00;;
25922;SDS011;13725;51.170;4.442;2022-09-28T16:19:57;1.92;;;1.00;;
25922;SDS011;13725;51.170;4.442;2022-09-28T16:22:25;4.78;;;1.45;;
25922;SDS011;13725;51.170;4.442;2022-09-28T16:24:57;2.22;;;0.82;;
25922;SDS011;13725;51.170;4.442;2022-09-28T16:27:40;2.05;;;0.80;;
25922;SDS011;13725;51.170;4.442;2022-09-28T16:30:17;2.25;;;0.90;;
25922;SDS011;13725;51.170;4.442;2022-09-28T16:35:49;6.28;;;1.13;;
25922;SDS011;13725;51.170;4.442;2022-09-28T16:38:16;1.65;;;1.00;;
25922;SDS011;13725;51.170;4.442;2022-09-28T16:40:47;3.10;;;1.15;;
25922;SDS011;13725;51.170;4.442;2022-09-28T16:45:51;3.45;;;0.70;;
25922;SDS011;13725;51.170;4.442;2022-09-28T16:48:41;6.32;;;1.63;;
25922;SDS011;13725;51.170;4.442;2022-09-28T16:51:18;2.72;;;1.08;;
25922;SDS011;13725;51.170;4.442;2022-09-28T16:53:45;3.85;;;0.80;;
25922;SDS011;13725;51.170;4.442;2022-09-28T16:56:30;6.30;;;0.90;;
25922;SDS011;13725;51.170;4.442;2022-09-28T16:58:57;3.20;;;1.00;;
25922;SDS011;13725;51.170;4.442;2022-09-28T17:01:24;3.80;;;1.08;;
25922;SDS011;13725;51.170;4.442;2022-09-28T17:03:49;4.38;;;1.17;;
25922;SDS011;13725;51.170;4.442;2022-09-28T17:06:16;5.18;;;1.25;;
25922;SDS011;13725;51.170;4.442;2022-09-28T17:08:43;2.78;;;1.30;;
25922;SDS011;13725;51.170;4.442;2022-09-28T17:11:13;2.15;;;1.25;;
25922;SDS011;13725;51.170;4.442;2022-09-28T17:13:40;2.42;;;1.27;;
25922;SDS011;13725;51.170;4.442;2022-09-28T17:16:17;3.63;;;1.33;;
25922;SDS011;13725;51.170;4.442;2022-09-28T17:18:45;1.92;;;1.40;;
25922;SDS011;13725;51.170;4.442;2022-09-28T17:21:15;2.95;;;1.75;;
25922;SDS011;13725;51.170;4.442;2022-09-28T17:23:43;9.05;;;1.70;;
25922;SDS011;13725;51.170;4.442;2022-09-28T17:26:28;3.78;;;1.90;;
25922;SDS011;13725;51.170;4.442;2022-09-28T17:28:59;3.47;;;1.50;;
25922;SDS011;13725;51.170;4.442;2022-09-28T17:31:26;2.55;;;1.52;;
25922;SDS011;13725;51.170;4.442;2022-09-28T17:33:52;5.35;;;1.60;;
25922;SDS011;13725;51.170;4.442;2022-09-28T17:36:21;3.85;;;1.83;;
25922;SDS011;13725;51.170;4.442;2022-09-28T17:38:48;3.40;;;2.08;;
25922;SDS011;13725;51.170;4.442;2022-09-28T17:41:16;10.80;;;3.83;;
25922;SDS011;13725;51.170;4.442;2022-09-28T17:43:44;8.38;;;3.25;;
25922;SDS011;13725;51.170;4.442;2022-09-28T17:46:32;7.75;;;2.78;;
25922;SDS011;13725;51.170;4.442;2022-09-28T17:48:58;4.25;;;3.10;;
25922;SDS011;13725;51.170;4.442;2022-09-28T17:51:26;5.07;;;3.03;;
25922;SDS011;13725;51.170;4.442;2022-09-28T17:53:57;4.93;;;2.60;;
25922;SDS011;13725;51.170;4.442;2022-09-28T17:56:25;9.63;;;2.50;;
25922;SDS011;13725;51.170;4.442;2022-09-28T17:58:51;3.72;;;2.53;;
25922;SDS011;13725;51.170;4.442;2022-09-28T18:01:17;5.60;;;2.85;;
25922;SDS011;13725;51.170;4.442;2022-09-28T18:03:44;4.97;;;3.10;;
25922;SDS011;13725;51.170;4.442;2022-09-28T18:06:11;8.75;;;3.13;;
25922;SDS011;13725;51.170;4.442;2022-09-28T18:08:39;8.25;;;2.97;;
25922;SDS011;13725;51.170;4.442;2022-09-28T18:11:06;8.10;;;3.95;;
25922;SDS011;13725;51.170;4.442;2022-09-28T18:13:31;11.85;;;4.30;;
25922;SDS011;13725;51.170;4.442;2022-09-28T18:15:57;6.07;;;3.85;;
25922;SDS011;13725;51.170;4.442;2022-09-28T18:18:23;9.13;;;4.40;;
25922;SDS011;13725;51.170;4.442;2022-09-28T18:20:49;10.85;;;5.20;;
25922;SDS011;13725;51.170;4.442;2022-09-28T18:23:15;11.05;;;6.03;;
25922;SDS011;13725;51.170;4.442;2022-09-28T18:25:42;10.38;;;6.30;;
25922;SDS011;13725;51.170;4.442;2022-09-28T18:28:09;10.90;;;5.00;;